Terminal Aerodrome Forecast
Issued by NWS Tuscon, AZ

Current Version | Previous Version | Text Only | Print | Product List | Glossary On
Versions: 1 2 3 4 5 6 7 8 9 10 11 12
278
FTUS45 KTWC 231134
TAFDUG
TAF
KDUG 231134Z 2312/2412 VRB04KT P6SM SKC
     FM231600 22010KT P6SM SKC
     FM232000 24018G28KT P6SM FEW100
     FM240500 30016G25KT P6SM SCT070=

USA.gov is the U.S. government's official web portal to all federal, state and local government web resources and services.